Time;durP1;ratioP1;P1;durP2;ratioP2;P2;SDS_P1;SDS_P2;PMS_P1;PMS_P2;Temp;Humidity;BMP_temperature;BMP_pressure;BME280_temperature;BME280_humidity;BME280_pressure;Samples;Min_cycle;Max_cycle;Signal;HPM_P1;HPM_P2
2021/12/06 00:00:52;;;;;;;0.40;0.40;;;2.30;99.90;;;;;;5073189;28;20522;-77
2021/12/06 00:03:25;;;;;;;0.40;0.40;;;2.30;99.90;;;;;;5073223;28;20543;-77
2021/12/06 00:05:52;;;;;;;0.30;0.30;;;2.30;99.90;;;;;;5072934;28;20440;-77
2021/12/06 00:08:19;;;;;;;1.13;0.50;;;2.30;99.90;;;;;;5073281;28;20895;-77
2021/12/06 00:10:50;;;;;;;0.60;0.57;;;2.30;99.90;;;;;;5072791;28;20980;-76
2021/12/06 00:13:20;;;;;;;0.67;0.67;;;2.30;99.90;;;;;;5072867;28;20878;-77
2021/12/06 00:15:49;;;;;;;0.40;0.40;;;2.30;99.90;;;;;;5072859;28;20938;-77
2021/12/06 00:18:16;;;;;;;0.30;0.30;;;2.30;99.90;;;;;;5073095;28;20566;-77
2021/12/06 00:20:43;;;;;;;0.30;0.30;;;2.30;99.90;;;;;;5072962;28;20492;-76
2021/12/06 00:23:10;;;;;;;0.30;0.30;;;2.30;99.90;;;;;;5072979;28;20470;-77
2021/12/06 00:25:37;;;;;;;0.60;0.40;;;2.30;99.90;;;;;;5073028;28;20419;-77
2021/12/06 00:28:04;;;;;;;0.50;0.50;;;2.30;99.90;;;;;;5073002;28;20449;-76
2021/12/06 00:30:32;;;;;;;0.70;0.50;;;2.30;99.90;;;;;;5072914;28;20802;-77
2021/12/06 00:32:59;;;;;;;0.30;0.30;;;2.30;99.90;;;;;;5072945;28;20440;-77
2021/12/06 00:35:26;;;;;;;0.33;0.33;;;2.30;99.90;;;;;;5072934;28;20819;-77
2021/12/06 00:37:56;;;;;;;0.50;0.50;;;2.30;99.90;;;;;;5072866;28;20419;-77
2021/12/06 00:40:24;;;;;;;2.20;0.50;;;2.30;99.90;;;;;;5072840;28;20572;-77
2021/12/06 00:42:51;;;;;;;0.40;0.40;;;2.30;99.90;;;;;;5072570;28;20966;-77
2021/12/06 00:45:18;;;;;;;0.30;0.30;;;2.30;99.90;;;;;;5072908;28;20436;-77
2021/12/06 00:47:47;;;;;;;0.30;0.30;;;2.30;99.90;;;;;;5072448;28;20488;-77
2021/12/06 00:50:15;;;;;;;0.50;0.50;;;2.30;99.90;;;;;;5073142;28;20461;-77
2021/12/06 00:52:42;;;;;;;0.30;0.30;;;2.30;99.90;;;;;;5076488;28;20452;-76
2021/12/06 00:55:10;;;;;;;0.50;0.50;;;2.30;99.90;;;;;;5076438;28;20440;-77
2021/12/06 00:57:37;;;;;;;0.30;0.30;;;2.30;99.90;;;;;;5076407;28;20436;-77
2021/12/06 01:00:06;;;;;;;0.30;0.30;;;2.20;99.90;;;;;;5076334;28;20456;-77
2021/12/06 01:02:33;;;;;;;0.30;0.30;;;2.30;99.90;;;;;;5076000;28;20926;-77
2021/12/06 01:05:01;;;;;;;0.30;0.30;;;2.30;99.90;;;;;;5076188;28;20488;-76
2021/12/06 01:07:28;;;;;;;1.70;0.60;;;2.30;99.90;;;;;;5075934;28;20906;-76
2021/12/06 01:09:54;;;;;;;0.30;0.30;;;2.30;99.90;;;;;;5076120;28;20469;-77
2021/12/06 01:12:21;;;;;;;0.37;0.37;;;2.30;99.90;;;;;;5075852;28;20795;-77
2021/12/06 01:14:48;;;;;;;0.30;0.20;;;2.40;99.90;;;;;;5076167;28;20437;-77
2021/12/06 01:17:15;;;;;;;0.57;0.57;;;2.30;99.90;;;;;;5076093;28;20437;-76
2021/12/06 01:19:42;;;;;;;0.40;0.40;;;2.30;99.90;;;;;;5075989;28;20419;-77
2021/12/06 01:22:21;;;;;;;0.30;0.30;;;2.30;99.90;;;;;;5075978;28;20458;-77
2021/12/06 01:24:54;;;;;;;0.30;0.30;;;2.30;99.90;;;;;;5075871;28;20472;-77
2021/12/06 01:28:01;;;;;;;0.90;0.53;;;2.30;99.90;;;;;;5075603;28;20912;-77
2021/12/06 01:30:48;;;;;;;0.30;0.30;;;2.30;99.90;;;;;;5075484;28;20980;-77
2021/12/06 01:33:42;;;;;;;0.73;0.73;;;2.30;99.90;;;;;;5075815;28;20447;-77
2021/12/06 01:39:13;;;;;;;0.50;0.50;;;2.30;99.90;;;;;;5057799;28;20424;-77
2021/12/06 01:41:44;;;;;;;2.30;0.77;;;2.30;99.90;;;;;;5075548;28;20476;-77
2021/12/06 01:44:13;;;;;;;0.90;0.90;;;2.30;99.90;;;;;;5075215;28;20461;-77
2021/12/06 01:46:43;;;;;;;0.40;0.37;;;2.30;99.90;;;;;;5075289;28;20451;-77
2021/12/06 01:49:11;;;;;;;0.43;0.43;;;2.30;99.90;;;;;;5075416;28;20427;-77
2021/12/06 01:51:39;;;;;;;0.30;0.30;;;2.30;99.90;;;;;;5075061;28;20457;-77
2021/12/06 01:54:09;;;;;;;0.57;0.43;;;2.30;99.90;;;;;;5075346;28;20441;-77
2021/12/06 01:56:36;;;;;;;0.43;0.43;;;2.30;99.90;;;;;;5075334;28;20448;-77
2021/12/06 01:59:04;;;;;;;0.30;0.30;;;2.30;99.90;;;;;;5074961;28;20441;-77
2021/12/06 02:01:31;;;;;;;0.30;0.30;;;2.30;99.90;;;;;;5075503;28;20465;-76
2021/12/06 02:03:58;;;;;;;1.13;0.80;;;2.40;99.90;;;;;;5075068;28;20915;-77
2021/12/06 02:06:25;;;;;;;0.33;0.33;;;2.40;99.90;;;;;;5075105;28;20444;-77
2021/12/06 02:08:52;;;;;;;0.30;0.30;;;2.40;99.90;;;;;;5074801;28;20932;-77
2021/12/06 02:11:23;;;;;;;0.30;0.20;;;2.40;99.90;;;;;;5074662;28;21007;-77
2021/12/06 02:13:56;;;;;;;1.13;0.80;;;2.40;99.90;;;;;;5075041;28;20421;-77
2021/12/06 02:16:31;;;;;;;0.37;0.37;;;2.30;99.90;;;;;;5074959;28;20433;-76
2021/12/06 02:19:03;;;;;;;0.40;0.40;;;2.30;99.90;;;;;;5074872;28;20490;-77
2021/12/06 02:21:34;;;;;;;1.77;0.80;;;2.30;99.90;;;;;;5074816;28;20452;-77
2021/12/06 02:24:07;;;;;;;0.47;0.47;;;2.30;99.90;;;;;;5074746;28;20465;-77
2021/12/06 02:26:33;;;;;;;0.40;0.40;;;2.30;99.90;;;;;;5074779;28;20408;-77
2021/12/06 02:29:00;;;;;;;0.30;0.30;;;2.30;99.90;;;;;;5074340;28;20959;-76
2021/12/06 02:31:29;;;;;;;0.60;0.60;;;2.30;99.90;;;;;;5074547;28;20501;-77
2021/12/06 02:33:56;;;;;;;0.30;0.30;;;2.30;99.90;;;;;;5074263;28;20443;-77
2021/12/06 02:36:23;;;;;;;1.23;1.13;;;2.30;99.90;;;;;;5074547;28;20475;-77
2021/12/06 02:38:52;;;;;;;0.40;0.40;;;2.30;99.90;;;;;;5074464;28;20444;-77
2021/12/06 02:41:19;;;;;;;0.40;0.30;;;2.30;99.90;;;;;;5074093;28;20479;-77
2021/12/06 02:43:47;;;;;;;0.30;0.30;;;2.40;99.90;;;;;;5074322;28;20536;-76
2021/12/06 02:46:14;;;;;;;2.00;0.93;;;2.30;99.90;;;;;;5074075;28;20451;-77
2021/12/06 02:48:41;;;;;;;0.30;0.30;;;2.30;99.90;;;;;;5074294;28;20760;-77
2021/12/06 02:51:09;;;;;;;0.97;0.97;;;2.30;99.90;;;;;;5074197;28;20473;-77
2021/12/06 02:53:37;;;;;;;0.40;0.40;;;2.30;99.90;;;;;;5074214;28;20467;-77
2021/12/06 02:56:18;;;;;;;0.30;0.30;;;2.30;99.90;;;;;;5074137;28;20444;-77
2021/12/06 02:58:56;;;;;;;0.33;0.33;;;2.30;99.90;;;;;;5074104;28;20437;-77
2021/12/06 03:01:27;;;;;;;0.30;0.30;;;2.20;99.90;;;;;;5074000;28;20469;-76
2021/12/06 03:03:54;;;;;;;0.50;0.50;;;2.30;99.90;;;;;;5073980;28;20440;-77
2021/12/06 03:06:22;;;;;;;0.40;0.40;;;2.20;99.90;;;;;;5073987;28;20453;-77
2021/12/06 03:08:54;;;;;;;0.30;0.30;;;2.20;99.90;;;;;;5073652;28;21003;-77
2021/12/06 03:11:25;;;;;;;1.17;0.53;;;2.20;99.90;;;;;;5073561;28;20476;-77
2021/12/06 03:13:52;;;;;;;1.57;0.50;;;2.30;99.90;;;;;;5074354;28;20452;-77
2021/12/06 03:16:19;;;;;;;0.30;0.30;;;2.30;99.90;;;;;;5073500;28;20456;-77
2021/12/06 03:18:47;;;;;;;0.30;0.30;;;2.20;99.90;;;;;;5073754;28;20445;-77
2021/12/06 03:21:15;;;;;;;0.60;0.60;;;2.20;99.90;;;;;;5073679;28;20512;-78
2021/12/06 03:23:42;;;;;;;0.30;0.20;;;2.20;99.90;;;;;;5073649;28;20419;-79
2021/12/06 03:26:10;;;;;;;0.50;0.50;;;2.20;99.90;;;;;;5073619;28;20449;-79
2021/12/06 03:28:40;;;;;;;0.30;0.30;;;2.20;99.90;;;;;;5073608;28;20454;-77
2021/12/06 03:31:07;;;;;;;0.30;0.30;;;2.30;99.90;;;;;;5073803;28;20974;-77
2021/12/06 03:33:35;;;;;;;0.87;0.87;;;2.20;99.90;;;;;;5073571;28;20478;-77
2021/12/06 03:36:03;;;;;;;0.60;0.60;;;2.20;99.90;;;;;;5073601;28;20445;-77
2021/12/06 03:38:30;;;;;;;0.60;0.40;;;2.20;99.90;;;;;;5073522;28;20449;-77
2021/12/06 03:40:57;;;;;;;0.30;0.30;;;2.20;99.90;;;;;;5073431;28;20469;-77
2021/12/06 03:43:24;;;;;;;0.80;0.47;;;2.20;99.90;;;;;;5073467;28;20449;-77
2021/12/06 03:45:52;;;;;;;0.50;0.50;;;2.20;99.90;;;;;;5073082;28;20486;-77
2021/12/06 03:48:19;;;;;;;0.70;0.70;;;2.20;99.90;;;;;;5072967;28;20485;-77
2021/12/06 03:50:46;;;;;;;0.83;0.57;;;2.20;99.90;;;;;;5073306;28;20465;-77
2021/12/06 03:53:12;;;;;;;0.60;0.60;;;2.20;99.90;;;;;;5073357;28;20448;-76
2021/12/06 03:55:39;;;;;;;0.30;0.30;;;2.10;99.90;;;;;;5073290;28;20426;-77
2021/12/06 03:58:06;;;;;;;0.30;0.30;;;2.10;99.90;;;;;;5073394;28;20436;-77
2021/12/06 04:00:34;;;;;;;1.17;1.17;;;2.10;99.90;;;;;;5072935;28;20950;-77
2021/12/06 04:03:02;;;;;;;0.60;0.60;;;2.20;99.90;;;;;;5073280;28;20506;-77
2021/12/06 04:05:29;;;;;;;1.90;1.80;;;2.20;99.90;;;;;;5072839;28;21018;-77
2021/12/06 04:07:56;;;;;;;0.40;0.40;;;2.20;99.90;;;;;;5072897;28;20940;-77
2021/12/06 04:10:25;;;;;;;0.30;0.30;;;2.20;99.90;;;;;;5072783;28;20476;-77
2021/12/06 04:12:55;;;;;;;0.40;0.40;;;2.20;99.90;;;;;;5073162;28;20488;-77
2021/12/06 04:15:23;;;;;;;0.73;0.73;;;2.30;99.90;;;;;;5073170;28;20416;-77
2021/12/06 04:17:50;;;;;;;0.50;0.50;;;2.20;99.90;;;;;;5072781;28;20940;-77
2021/12/06 04:20:18;;;;;;;0.40;0.40;;;2.30;99.90;;;;;;5073081;28;20464;-76
2021/12/06 04:22:45;;;;;;;1.77;1.73;;;2.30;99.90;;;;;;5072777;28;20836;-77
2021/12/06 04:25:14;;;;;;;0.30;0.30;;;2.30;99.90;;;;;;5075019;28;20480;-77
2021/12/06 04:27:42;;;;;;;0.40;0.40;;;2.30;99.90;;;;;;5077023;28;20455;-77
2021/12/06 04:30:12;;;;;;;0.30;0.30;;;2.40;99.90;;;;;;5076636;28;20979;-77
2021/12/06 04:32:39;;;;;;;0.70;0.70;;;2.40;99.90;;;;;;5076950;28;20448;-77
2021/12/06 04:35:07;;;;;;;0.30;0.30;;;2.40;99.90;;;;;;5076558;28;20444;-76
2021/12/06 04:37:35;;;;;;;0.87;0.87;;;2.40;99.90;;;;;;5076616;28;20433;-77
2021/12/06 04:40:02;;;;;;;0.67;0.67;;;2.40;99.90;;;;;;5076718;28;20464;-77
2021/12/06 04:42:29;;;;;;;0.40;0.30;;;2.30;99.90;;;;;;5076709;28;20456;-78
2021/12/06 04:44:56;;;;;;;0.60;0.60;;;2.40;99.90;;;;;;5076568;28;20494;-79
2021/12/06 04:47:23;;;;;;;0.40;0.40;;;2.40;99.90;;;;;;5076283;28;20484;-79
2021/12/06 04:49:50;;;;;;;0.60;0.60;;;2.40;99.90;;;;;;5076493;28;20473;-79
2021/12/06 04:52:19;;;;;;;0.47;0.47;;;2.40;99.90;;;;;;5076529;28;20455;-79
2021/12/06 04:54:49;;;;;;;0.40;0.40;;;2.50;99.90;;;;;;5076506;28;20444;-79
2021/12/06 04:57:21;;;;;;;0.30;0.30;;;2.50;99.90;;;;;;5076604;28;20452;-79
2021/12/06 04:59:52;;;;;;;0.30;0.30;;;2.50;99.90;;;;;;5076067;28;20963;-79
2021/12/06 05:02:23;;;;;;;0.70;0.70;;;2.50;99.90;;;;;;5076365;28;20433;-79
2021/12/06 05:04:53;;;;;;;0.40;0.40;;;2.60;99.90;;;;;;5076260;28;20468;-79
2021/12/06 05:07:24;;;;;;;0.40;0.40;;;2.60;99.90;;;;;;5077052;28;20456;-79
2021/12/06 05:09:53;;;;;;;0.43;0.43;;;2.60;99.90;;;;;;5076173;28;20468;-79
2021/12/06 05:12:23;;;;;;;6.30;1.50;;;2.60;99.90;;;;;;5075873;28;20908;-79
2021/12/06 05:14:49;;;;;;;0.40;0.40;;;2.60;99.90;;;;;;5075817;28;20448;-79
2021/12/06 05:17:16;;;;;;;0.50;0.40;;;2.50;99.90;;;;;;5076050;28;20448;-79
2021/12/06 05:19:43;;;;;;;0.30;0.30;;;2.60;99.90;;;;;;5075955;28;20456;-79
2021/12/06 05:22:10;;;;;;;0.30;0.30;;;2.60;99.90;;;;;;5075984;28;20444;-79
2021/12/06 05:24:38;;;;;;;0.40;0.40;;;2.60;99.90;;;;;;5075854;28;20453;-79
2021/12/06 05:27:06;;;;;;;0.40;0.40;;;2.60;99.90;;;;;;5075878;28;20445;-79
2021/12/06 05:29:35;;;;;;;1.30;0.50;;;2.60;99.90;;;;;;5075513;28;20802;-79
2021/12/06 05:32:02;;;;;;;0.30;0.30;;;2.60;99.90;;;;;;5075830;28;20817;-79
2021/12/06 05:34:37;;;;;;;0.77;0.63;;;2.60;99.90;;;;;;5075281;28;20461;-79
2021/12/06 05:37:06;;;;;;;0.40;0.40;;;2.60;99.90;;;;;;5075204;28;20437;-76
2021/12/06 05:39:32;;;;;;;0.80;0.77;;;2.60;99.90;;;;;;5075718;28;20445;-76
2021/12/06 05:42:02;;;;;;;1.57;0.67;;;2.60;99.90;;;;;;5075612;28;20452;-76
2021/12/06 05:44:30;;;;;;;0.30;0.30;;;2.60;99.90;;;;;;5075522;28;20448;-76
2021/12/06 05:46:57;;;;;;;0.30;0.30;;;2.60;99.90;;;;;;5075330;28;21014;-76
2021/12/06 05:49:25;;;;;;;0.40;0.40;;;2.60;99.90;;;;;;5075187;28;20443;-76
2021/12/06 05:51:52;;;;;;;0.77;0.77;;;2.60;99.90;;;;;;5075145;28;20455;-76
2021/12/06 05:54:19;;;;;;;1.70;1.60;;;2.60;99.90;;;;;;5075357;28;20441;-76
2021/12/06 05:56:47;;;;;;;0.40;0.30;;;2.60;99.90;;;;;;5075060;28;20962;-76
2021/12/06 05:59:14;;;;;;;2.50;1.97;;;2.60;99.90;;;;;;5075017;28;20959;-76
2021/12/06 06:01:42;;;;;;;0.30;0.30;;;2.60;99.90;;;;;;5075338;28;20473;-76
2021/12/06 06:04:09;;;;;;;0.33;0.33;;;2.60;99.90;;;;;;5075197;28;20444;-76
2021/12/06 06:06:37;;;;;;;1.27;0.70;;;2.60;99.90;;;;;;5075062;28;20820;-76
2021/12/06 06:09:06;;;;;;;0.30;0.30;;;2.60;99.90;;;;;;5075092;28;20441;-76
2021/12/06 06:11:35;;;;;;;0.30;0.30;;;2.60;99.90;;;;;;5075018;28;20473;-76
2021/12/06 06:14:02;;;;;;;0.30;0.30;;;2.70;99.90;;;;;;5074728;28;20479;-76
2021/12/06 06:16:32;;;;;;;0.50;0.50;;;2.70;99.90;;;;;;5074923;28;20441;-76
2021/12/06 06:19:00;;;;;;;0.30;0.30;;;2.70;99.90;;;;;;5075382;28;20437;-76
2021/12/06 06:21:27;;;;;;;0.30;0.30;;;2.60;99.90;;;;;;5074752;28;20476;-76
2021/12/06 06:23:53;;;;;;;0.30;0.30;;;2.70;99.90;;;;;;5074782;28;20449;-76
2021/12/06 06:26:20;;;;;;;0.30;0.20;;;2.70;99.90;;;;;;5074673;28;20507;-76
2021/12/06 06:28:47;;;;;;;0.30;0.30;;;2.70;99.90;;;;;;5074678;28;20451;-76
2021/12/06 06:31:14;;;;;;;0.30;0.30;;;2.70;99.90;;;;;;5074217;28;20867;-76
2021/12/06 06:33:40;;;;;;;0.60;0.60;;;2.70;99.90;;;;;;5074561;28;20449;-76
2021/12/06 06:36:09;;;;;;;0.30;0.30;;;2.70;99.90;;;;;;5074502;28;20441;-76
2021/12/06 06:38:35;;;;;;;0.30;0.30;;;2.70;99.90;;;;;;5074189;28;20499;-76
2021/12/06 06:41:03;;;;;;;0.70;0.40;;;2.80;99.90;;;;;;5074390;28;20468;-76
2021/12/06 06:43:29;;;;;;;2.10;0.80;;;2.80;99.90;;;;;;5074364;28;20449;-78
2021/12/06 06:45:56;;;;;;;1.43;1.43;;;2.80;99.90;;;;;;5074237;28;20481;-78
2021/12/06 06:48:23;;;;;;;0.67;0.67;;;2.70;99.90;;;;;;5072986;28;20488;-78
2021/12/06 06:50:50;;;;;;;0.60;0.60;;;2.70;99.90;;;;;;5074183;28;20469;-78
2021/12/06 06:53:18;;;;;;;0.30;0.30;;;2.80;99.90;;;;;;5073876;28;20971;-78
2021/12/06 06:55:45;;;;;;;0.67;0.67;;;2.80;99.90;;;;;;5074139;28;20441;-78
2021/12/06 06:58:11;;;;;;;0.50;0.50;;;2.80;99.90;;;;;;5074101;28;20456;-78
2021/12/06 07:00:41;;;;;;;0.30;0.30;;;2.80;99.90;;;;;;5073702;28;21016;-78
2021/12/06 07:03:09;;;;;;;0.60;0.57;;;2.80;99.90;;;;;;5073999;28;20452;-78
2021/12/06 07:05:37;;;;;;;0.40;0.40;;;2.80;99.90;;;;;;5073981;28;20475;-78
2021/12/06 07:08:05;;;;;;;0.30;0.27;;;2.80;99.90;;;;;;5073948;28;20444;-78
2021/12/06 07:10:33;;;;;;;0.30;0.30;;;2.80;99.90;;;;;;5073827;28;20472;-78
2021/12/06 07:13:04;;;;;;;0.97;0.97;;;2.80;99.90;;;;;;5073885;28;20441;-78
2021/12/06 07:15:33;;;;;;;0.67;0.67;;;2.80;99.90;;;;;;5073837;28;20465;-78
2021/12/06 07:18:00;;;;;;;1.33;1.20;;;2.80;99.90;;;;;;5073742;28;20449;-78
2021/12/06 07:20:27;;;;;;;0.40;0.30;;;2.80;99.90;;;;;;5073644;28;20501;-78
2021/12/06 07:22:55;;;;;;;0.30;0.30;;;2.80;99.90;;;;;;5073710;28;20440;-78
2021/12/06 07:25:23;;;;;;;1.70;1.60;;;2.80;99.90;;;;;;5073575;28;20481;-78
2021/12/06 07:27:52;;;;;;;0.30;0.30;;;2.80;99.90;;;;;;5073637;28;20448;-78
2021/12/06 07:30:21;;;;;;;0.30;0.30;;;2.80;99.90;;;;;;5073192;28;21044;-78
2021/12/06 07:32:50;;;;;;;0.40;0.40;;;2.80;99.90;;;;;;5073807;28;20438;-78
2021/12/06 07:35:17;;;;;;;0.50;0.47;;;2.80;99.90;;;;;;5073605;28;20536;-78
2021/12/06 07:37:44;;;;;;;0.67;0.67;;;2.70;99.90;;;;;;5073592;28;20448;-78
2021/12/06 07:40:13;;;;;;;0.40;0.40;;;2.70;99.90;;;;;;5073584;28;20471;-78
2021/12/06 07:42:40;;;;;;;0.67;0.67;;;2.70;99.90;;;;;;5073357;28;20440;-76
2021/12/06 07:45:11;;;;;;;0.47;0.47;;;2.80;99.90;;;;;;5073210;28;20451;-76
2021/12/06 07:47:39;;;;;;;0.30;0.30;;;2.80;99.90;;;;;;5073169;28;20477;-76
2021/12/06 07:50:08;;;;;;;0.40;0.30;;;2.80;99.90;;;;;;5073238;28;20976;-76
2021/12/06 07:52:36;;;;;;;0.30;0.20;;;2.80;99.90;;;;;;5073536;28;20440;-77
2021/12/06 07:55:04;;;;;;;0.70;0.70;;;2.80;99.90;;;;;;5073358;28;20479;-77
2021/12/06 07:57:31;;;;;;;1.33;0.97;;;2.90;99.90;;;;;;5073504;28;20436;-76
2021/12/06 07:59:58;;;;;;;0.40;0.40;;;2.90;99.90;;;;;;5073068;28;20475;-76
2021/12/06 08:02:26;;;;;;;1.70;0.73;;;2.90;99.90;;;;;;5073316;28;20425;-76
2021/12/06 08:05:29;;;;;;;1.40;0.50;;;2.90;99.90;;;;;;5073288;28;20433;-77
2021/12/06 08:07:41;;;;;;;0.50;0.40;;;2.90;99.90;;;;;;5073028;28;21022;-76
2021/12/06 08:10:08;;;;;;;0.60;0.60;;;3.00;99.90;;;;;;5073471;28;20472;-76
2021/12/06 08:12:35;;;;;;;0.93;0.83;;;3.00;99.90;;;;;;5073434;28;20425;-77
2021/12/06 08:15:03;;;;;;;0.73;0.73;;;2.90;99.90;;;;;;5073620;28;20425;-76
2021/12/06 08:17:32;;;;;;;1.93;1.83;;;2.90;99.90;;;;;;5073590;28;20460;-76
2021/12/06 08:19:59;;;;;;;0.40;0.40;;;2.90;99.90;;;;;;5072878;28;20472;-76
2021/12/06 08:22:25;;;;;;;0.40;0.40;;;3.00;99.90;;;;;;5073176;28;20435;-76
2021/12/06 08:24:52;;;;;;;0.63;0.63;;;3.00;99.90;;;;;;5073054;28;20425;-76
2021/12/06 08:27:19;;;;;;;0.50;0.50;;;3.10;99.90;;;;;;5072931;28;20489;-76
2021/12/06 08:29:46;;;;;;;0.30;0.30;;;3.10;99.90;;;;;;5072990;28;20427;-76
2021/12/06 08:32:12;;;;;;;0.40;0.40;;;3.20;99.90;;;;;;5072711;28;20491;-77
2021/12/06 08:34:41;;;;;;;0.40;0.40;;;3.20;99.90;;;;;;5072969;28;20456;-77
2021/12/06 08:37:08;;;;;;;0.30;0.30;;;3.20;99.90;;;;;;5072690;28;20803;-76
2021/12/06 08:39:35;;;;;;;0.30;0.30;;;3.20;99.90;;;;;;5072544;28;20936;-77
2021/12/06 08:42:02;;;;;;;2.00;0.40;;;3.20;99.90;;;;;;5072885;28;20441;-76
2021/12/06 08:44:29;;;;;;;0.30;0.30;;;3.20;99.90;;;;;;5072924;28;20462;-76
2021/12/06 08:46:56;;;;;;;0.57;0.57;;;3.30;99.90;;;;;;5072267;28;21038;-76
2021/12/06 08:49:23;;;;;;;0.90;0.90;;;3.30;99.90;;;;;;5072548;28;20932;-77
2021/12/06 08:51:55;;;;;;;0.30;0.30;;;3.20;99.90;;;;;;5072772;28;20476;-76
2021/12/06 08:54:26;;;;;;;2.33;0.50;;;3.30;99.90;;;;;;5072517;28;20461;-77
2021/12/06 08:56:55;;;;;;;0.63;0.63;;;3.30;99.90;;;;;;5072510;28;20845;-76
2021/12/06 08:59:22;;;;;;;0.40;0.30;;;3.20;99.90;;;;;;5072757;28;20453;-77
2021/12/06 09:01:49;;;;;;;0.30;0.30;;;3.20;99.90;;;;;;5072687;28;20514;-76
2021/12/06 09:04:17;;;;;;;2.60;1.30;;;3.20;99.90;;;;;;5072692;28;20451;-76
2021/12/06 09:06:46;;;;;;;0.97;0.97;;;3.30;99.90;;;;;;5072305;28;21022;-76
2021/12/06 09:09:15;;;;;;;0.30;0.30;;;3.30;99.90;;;;;;5072674;28;20448;-76
2021/12/06 09:11:44;;;;;;;0.40;0.40;;;3.30;99.90;;;;;;5073669;28;20475;-76
2021/12/06 09:14:12;;;;;;;0.30;0.30;;;3.40;99.90;;;;;;5076155;28;20448;-76
2021/12/06 09:16:39;;;;;;;0.40;0.40;;;3.50;99.90;;;;;;5076154;28;20448;-76
2021/12/06 09:19:08;;;;;;;1.07;0.93;;;3.50;99.90;;;;;;5076077;28;20453;-76
2021/12/06 09:21:37;;;;;;;0.80;0.80;;;3.50;99.90;;;;;;5075953;28;20476;-76
2021/12/06 09:24:07;;;;;;;0.97;0.97;;;3.50;99.90;;;;;;5075978;28;20868;-76
2021/12/06 09:26:35;;;;;;;0.40;0.40;;;3.40;99.90;;;;;;5075858;28;20481;-76
2021/12/06 09:29:03;;;;;;;0.50;0.50;;;3.40;99.90;;;;;;5075907;28;20813;-76
2021/12/06 09:31:30;;;;;;;5.50;1.83;;;3.50;99.90;;;;;;5075808;28;20476;-76
2021/12/06 09:33:56;;;;;;;0.60;0.40;;;3.50;99.90;;;;;;5075866;28;20432;-76
2021/12/06 09:36:23;;;;;;;0.40;0.40;;;3.70;99.90;;;;;;5075811;28;20425;-76
2021/12/06 09:38:50;;;;;;;0.30;0.30;;;3.80;99.90;;;;;;5075776;28;20421;-76
2021/12/06 09:41:22;;;;;;;0.30;0.30;;;4.00;99.90;;;;;;5075302;28;20976;-76
2021/12/06 09:43:52;;;;;;;0.67;0.67;;;4.10;99.90;;;;;;5075602;28;20433;-76
2021/12/06 09:46:19;;;;;;;0.40;0.40;;;4.20;99.90;;;;;;5075299;28;20479;-77
2021/12/06 09:48:47;;;;;;;0.40;0.30;;;4.20;99.90;;;;;;5075284;28;20429;-77
2021/12/06 09:51:18;;;;;;;2.00;0.70;;;4.30;99.90;;;;;;5075112;28;20975;-77
2021/12/06 09:53:47;;;;;;;0.30;0.20;;;4.30;99.90;;;;;;5075173;28;20901;-77
2021/12/06 09:56:17;;;;;;;0.40;0.40;;;4.30;99.90;;;;;;5075432;28;20430;-77
2021/12/06 09:58:45;;;;;;;0.73;0.73;;;4.40;99.90;;;;;;5075392;28;20425;-77
2021/12/06 10:01:16;;;;;;;1.47;0.87;;;4.40;99.90;;;;;;5074927;28;20468;-77
2021/12/06 10:03:46;;;;;;;0.30;0.30;;;4.40;99.90;;;;;;5075289;28;20441;-77
2021/12/06 10:06:13;;;;;;;0.30;0.20;;;4.40;99.90;;;;;;5074838;28;20475;-77
2021/12/06 10:08:44;;;;;;;0.30;0.30;;;4.30;99.90;;;;;;5075180;28;20429;-77
2021/12/06 10:11:13;;;;;;;0.30;0.30;;;4.20;99.90;;;;;;5074726;28;20473;-77
2021/12/06 10:13:40;;;;;;;0.83;0.83;;;4.20;99.90;;;;;;5075125;28;20460;-77
2021/12/06 10:16:09;;;;;;;1.03;0.87;;;4.10;99.90;;;;;;5075044;28;20437;-77
2021/12/06 10:18:38;;;;;;;0.30;0.30;;;4.10;99.90;;;;;;5074686;28;20804;-77
2021/12/06 10:21:06;;;;;;;0.63;0.63;;;4.10;99.90;;;;;;5074585;28;20476;-77
2021/12/06 10:23:36;;;;;;;1.10;0.40;;;4.10;99.90;;;;;;5074452;28;20920;-77
2021/12/06 10:26:05;;;;;;;0.50;0.50;;;4.20;99.90;;;;;;5074383;28;20908;-77
2021/12/06 10:28:32;;;;;;;0.30;0.30;;;4.20;99.90;;;;;;5074807;28;20432;-77
2021/12/06 10:31:03;;;;;;;0.30;0.30;;;4.30;99.90;;;;;;5074665;28;20469;-77
2021/12/06 10:33:31;;;;;;;0.50;0.50;;;4.40;99.90;;;;;;5074355;28;20896;-78
2021/12/06 10:36:02;;;;;;;0.40;0.40;;;4.40;99.90;;;;;;5074689;28;20432;-76
2021/12/06 10:38:33;;;;;;;0.50;0.50;;;4.50;99.90;;;;;;5074297;28;20923;-77
2021/12/06 10:41:03;;;;;;;0.30;0.30;;;4.60;99.90;;;;;;5074429;28;20556;-77
2021/12/06 10:43:32;;;;;;;0.30;0.30;;;4.50;99.90;;;;;;5074452;28;20432;-77
2021/12/06 10:45:59;;;;;;;0.30;0.30;;;4.40;99.90;;;;;;5074382;28;20452;-77
2021/12/06 10:48:28;;;;;;;0.30;0.30;;;4.30;99.90;;;;;;5073865;28;20508;-77
2021/12/06 10:51:01;;;;;;;0.47;0.47;;;4.10;99.90;;;;;;5074201;28;20527;-78
2021/12/06 10:53:35;;;;;;;0.30;0.30;;;4.00;99.90;;;;;;5073947;28;20905;-75
2021/12/06 10:56:01;;;;;;;0.30;0.30;;;3.90;99.90;;;;;;5074159;28;20489;-75
2021/12/06 10:58:31;;;;;;;0.37;0.30;;;4.00;99.90;;;;;;5073862;28;20436;-75
2021/12/06 11:01:05;;;;;;;0.40;0.40;;;4.10;99.90;;;;;;5074083;28;20465;-75
2021/12/06 11:03:35;;;;;;;0.50;0.50;;;4.20;99.90;;;;;;5074061;28;20432;-75
2021/12/06 11:06:07;;;;;;;1.17;0.50;;;4.20;99.90;;;;;;5073995;28;20432;-75
2021/12/06 11:08:35;;;;;;;1.70;0.37;;;4.40;99.90;;;;;;5073934;28;20469;-75
2021/12/06 11:11:05;;;;;;;0.30;0.30;;;4.50;99.90;;;;;;5073821;28;20488;-77
2021/12/06 11:13:34;;;;;;;0.30;0.30;;;4.60;99.90;;;;;;5073535;28;20938;-77
2021/12/06 11:16:09;;;;;;;0.30;0.30;;;4.80;99.90;;;;;;5073714;28;20432;-77
2021/12/06 11:18:48;;;;;;;0.50;0.50;;;4.80;99.90;;;;;;5073718;28;20436;-77
2021/12/06 11:21:28;;;;;;;0.30;0.30;;;4.80;99.90;;;;;;5073691;28;20472;-77
2021/12/06 11:24:17;;;;;;;0.30;0.30;;;4.90;99.90;;;;;;5073766;28;20435;-77
2021/12/06 11:26:48;;;;;;;0.30;0.30;;;5.10;99.90;;;;;;5073647;28;20488;-77
2021/12/06 11:29:19;;;;;;;0.30;0.20;;;5.20;99.90;;;;;;5073736;28;20440;-77
2021/12/06 11:31:52;;;;;;;0.30;0.30;;;5.30;99.90;;;;;;5073634;28;20550;-77
2021/12/06 11:34:19;;;;;;;0.30;0.20;;;5.30;99.90;;;;;;5073165;28;20440;-77
2021/12/06 11:36:48;;;;;;;0.30;0.30;;;5.30;99.90;;;;;;5073613;28;20433;-77
2021/12/06 11:39:17;;;;;;;0.30;0.20;;;5.30;99.90;;;;;;5073295;28;20780;-77
2021/12/06 11:41:48;;;;;;;0.30;0.30;;;5.30;99.90;;;;;;5073400;28;20464;-77
2021/12/06 11:44:34;;;;;;;0.40;0.30;;;5.10;99.90;;;;;;5073506;28;20459;-77
2021/12/06 11:47:06;;;;;;;0.30;0.23;;;5.00;99.90;;;;;;5073012;28;20499;-77
2021/12/06 11:49:42;;;;;;;0.30;0.30;;;4.80;99.90;;;;;;5073385;28;20440;-77
2021/12/06 11:52:16;;;;;;;0.30;0.20;;;4.60;99.90;;;;;;5073470;28;20456;-77
2021/12/06 11:54:48;;;;;;;0.30;0.30;;;4.60;99.90;;;;;;5073441;28;20474;-77
2021/12/06 11:57:19;;;;;;;0.30;0.20;;;4.50;99.90;;;;;;5073381;28;20437;-77
2021/12/06 11:59:51;;;;;;;0.30;0.30;;;4.50;99.90;;;;;;5073006;28;20912;-77
2021/12/06 12:02:30;;;;;;;0.33;0.33;;;4.50;99.90;;;;;;5073033;28;20908;-77
2021/12/06 12:05:10;;;;;;;0.70;0.43;;;4.50;99.90;;;;;;5073273;28;20441;-77
2021/12/06 12:10:49;;;;;;;0.30;0.20;;;4.70;99.90;;;;;;5132289;27;20605;-76
2021/12/06 12:13:24;;;;;;;0.63;0.63;;;4.90;99.90;;;;;;5129289;27;20453;-76
2021/12/06 12:15:52;;;;;;;0.30;0.20;;;5.00;99.90;;;;;;5131491;27;20942;-76
2021/12/06 12:18:19;;;;;;;0.90;0.40;;;4.90;99.90;;;;;;5131689;27;20441;-76
2021/12/06 12:20:46;;;;;;;0.30;0.30;;;4.90;99.90;;;;;;5131617;27;20473;-76
2021/12/06 12:23:13;;;;;;;0.30;0.30;;;5.00;99.90;;;;;;5131664;27;20485;-76
2021/12/06 12:25:48;;;;;;;0.30;0.30;;;5.10;99.90;;;;;;5131273;27;20430;-76
2021/12/06 12:28:22;;;;;;;0.60;0.50;;;5.20;99.90;;;;;;5131554;27;20426;-76
2021/12/06 12:30:52;;;;;;;0.30;0.30;;;5.40;99.90;;;;;;5131169;27;20556;-76
2021/12/06 12:33:20;;;;;;;0.90;0.90;;;5.40;99.90;;;;;;5131499;27;20407;-76
2021/12/06 12:35:49;;;;;;;0.40;0.30;;;5.30;99.90;;;;;;5131419;28;20479;-76
2021/12/06 12:38:21;;;;;;;0.30;0.30;;;5.30;99.90;;;;;;5131302;27;20457;-76
2021/12/06 12:40:52;;;;;;;0.40;0.40;;;5.20;99.90;;;;;;5131246;27;20547;-76
2021/12/06 12:43:22;;;;;;;0.37;0.30;;;5.10;99.90;;;;;;5131328;27;20433;-76
2021/12/06 12:45:51;;;;;;;0.30;0.20;;;5.20;99.90;;;;;;5131020;27;20450;-76
2021/12/06 12:48:23;;;;;;;0.30;0.30;;;5.20;99.90;;;;;;5131061;27;21016;-76
2021/12/06 12:51:05;;;;;;;0.30;0.30;;;5.10;99.90;;;;;;5130738;27;20835;-76
2021/12/06 12:53:46;;;;;;;0.30;0.30;;;5.00;99.90;;;;;;5131107;27;20442;-76
2021/12/06 12:56:24;;;;;;;0.30;0.30;;;4.90;99.90;;;;;;5130663;27;20438;-76
2021/12/06 12:58:52;;;;;;;0.60;0.60;;;4.80;99.90;;;;;;5130954;27;20462;-76
2021/12/06 13:01:21;;;;;;;0.30;0.30;;;4.70;99.90;;;;;;5130562;27;20523;-76
2021/12/06 13:03:54;;;;;;;0.30;0.30;;;4.60;99.90;;;;;;5130860;27;20438;-76
2021/12/06 13:06:27;;;;;;;0.30;0.20;;;4.60;99.90;;;;;;5130846;27;20767;-76
2021/12/06 13:08:57;;;;;;;0.30;0.27;;;4.50;99.90;;;;;;5130495;27;20514;-76
2021/12/06 13:11:29;;;;;;;2.30;0.67;;;4.50;99.90;;;;;;5130272;27;21139;-76
2021/12/06 13:13:57;;;;;;;0.30;0.30;;;4.50;99.90;;;;;;5130747;27;20426;-76